Time;durP1;ratioP1;P1;durP2;ratioP2;P2;SDS_P1;SDS_P2;PMS_P1;PMS_P2;Temp;Humidity;BMP_temperature;BMP_pressure;BME280_temperature;BME280_humidity;BME280_pressure;Samples;Min_cycle;Max_cycle;Signal;HPM_P1;HPM_P2
2023/05/01 00:00:47;;;;;;;5.82;2.97;;;12.80;92.50;;;;;;6241080;23;20474;-71
2023/05/01 00:03:13;;;;;;;6.57;2.78;;;12.80;92.50;;;;;;6239415;23;20086;-71
2023/05/01 00:05:39;;;;;;;5.47;3.28;;;12.80;92.50;;;;;;6243285;22;20000;-71
2023/05/01 00:08:04;;;;;;;7.60;3.08;;;12.80;92.50;;;;;;6242872;23;20001;-71
2023/05/01 00:10:30;;;;;;;9.15;3.75;;;12.80;92.60;;;;;;6242078;23;20000;-71
2023/05/01 00:12:55;;;;;;;7.70;3.60;;;12.80;92.60;;;;;;6242840;23;19996;-71
2023/05/01 00:15:21;;;;;;;5.60;3.00;;;12.70;92.60;;;;;;6242202;23;20004;-71
2023/05/01 00:17:47;;;;;;;8.85;3.50;;;12.70;92.70;;;;;;6243152;23;19998;-71
2023/05/01 00:20:13;;;;;;;6.63;3.33;;;12.70;92.70;;;;;;6242370;22;20000;-71
2023/05/01 00:22:38;;;;;;;9.50;3.70;;;12.70;92.70;;;;;;6242872;23;20414;-71
2023/05/01 00:25:05;;;;;;;9.60;3.47;;;12.70;92.80;;;;;;6242280;23;20025;-71
2023/05/01 00:27:30;;;;;;;5.72;3.30;;;12.70;92.90;;;;;;6242220;22;20008;-71
2023/05/01 00:29:56;;;;;;;4.97;2.45;;;12.70;92.90;;;;;;6242947;22;20008;-71
2023/05/01 00:32:21;;;;;;;5.63;2.60;;;12.60;93.00;;;;;;6242302;23;20434;-71
2023/05/01 00:34:48;;;;;;;5.32;3.25;;;12.60;93.00;;;;;;6242487;23;20019;-71
2023/05/01 00:37:14;;;;;;;4.82;3.83;;;12.60;93.00;;;;;;6240891;23;20000;-71
2023/05/01 00:39:39;;;;;;;5.47;2.55;;;12.60;93.10;;;;;;6242438;23;20007;-72
2023/05/01 00:42:05;;;;;;;7.75;3.03;;;12.60;93.10;;;;;;6242910;22;20023;-72
2023/05/01 00:44:31;;;;;;;7.28;3.05;;;12.60;93.10;;;;;;6242326;22;20054;-72
2023/05/01 00:46:59;;;;;;;12.43;4.18;;;12.60;93.10;;;;;;6242987;23;19996;-72
2023/05/01 00:49:25;;;;;;;6.65;3.05;;;12.50;93.10;;;;;;6241013;22;20003;-72
2023/05/01 00:51:52;;;;;;;7.57;3.10;;;12.50;93.10;;;;;;6242517;22;20007;-72
2023/05/01 00:54:18;;;;;;;8.23;3.45;;;12.50;93.10;;;;;;6241557;22;20011;-72
2023/05/01 00:56:46;;;;;;;4.63;3.42;;;12.50;93.10;;;;;;6242738;22;20026;-72
2023/05/01 00:59:12;;;;;;;5.95;3.42;;;12.50;93.10;;;;;;6241884;22;20000;-72
2023/05/01 01:01:37;;;;;;;8.95;2.95;;;12.40;93.10;;;;;;6240703;23;20027;-72
2023/05/01 01:04:03;;;;;;;6.95;3.30;;;12.40;93.10;;;;;;6242339;23;20000;-72
2023/05/01 01:06:40;;;;;;;7.80;2.72;;;12.40;93.10;;;;;;6242143;23;20007;-72
2023/05/01 01:09:28;;;;;;;6.28;3.22;;;12.30;93.30;;;;;;6242018;22;20000;-72
2023/05/01 01:12:00;;;;;;;6.57;3.60;;;12.30;93.10;;;;;;6242536;22;20337;-72
2023/05/01 01:14:39;;;;;;;5.85;3.40;;;12.30;93.10;;;;;;6242028;22;20373;-72
2023/05/01 01:17:20;;;;;;;7.13;3.55;;;12.30;93.10;;;;;;6242582;22;20000;-72
2023/05/01 01:20:15;;;;;;;7.10;3.90;;;12.30;93.20;;;;;;6241058;23;20525;-72
2023/05/01 01:22:48;;;;;;;9.88;3.42;;;12.30;93.10;;;;;;6242195;23;20414;-72
2023/05/01 01:25:35;;;;;;;7.60;3.67;;;12.30;93.10;;;;;;6242139;22;20007;-72
2023/05/01 01:28:18;;;;;;;4.65;3.67;;;12.30;93.40;;;;;;6242679;22;20008;-72
2023/05/01 01:31:11;;;;;;;6.03;3.88;;;12.30;93.10;;;;;;6242834;22;20031;-72
2023/05/01 01:34:00;;;;;;;6.32;3.47;;;12.30;93.20;;;;;;6242451;22;20430;-72
2023/05/01 01:36:58;;;;;;;8.23;3.40;;;12.20;93.10;;;;;;6241867;22;20001;-72
2023/05/01 01:39:43;;;;;;;8.77;3.75;;;12.20;93.10;;;;;;6241406;22;20058;-72
2023/05/01 01:42:15;;;;;;;4.53;2.97;;;12.20;93.20;;;;;;6242287;22;20030;-72
2023/05/01 01:44:47;;;;;;;5.63;3.70;;;12.10;93.10;;;;;;6240934;23;20011;-72
2023/05/01 01:47:14;;;;;;;6.78;3.75;;;12.10;93.10;;;;;;6242010;22;20027;-72
2023/05/01 01:49:47;;;;;;;7.65;3.30;;;12.10;93.10;;;;;;6242546;22;20011;-72
2023/05/01 01:52:14;;;;;;;12.30;3.88;;;12.10;93.10;;;;;;6241056;22;20082;-73
2023/05/01 01:54:46;;;;;;;5.97;3.35;;;12.10;93.10;;;;;;6242229;23;20019;-72
2023/05/01 01:57:15;;;;;;;6.93;2.80;;;12.10;93.10;;;;;;6241602;22;19996;-72
2023/05/01 01:59:42;;;;;;;6.82;3.03;;;12.00;93.10;;;;;;6242420;22;20022;-72
2023/05/01 02:02:08;;;;;;;5.90;3.58;;;12.10;93.10;;;;;;6241881;22;20004;-72
2023/05/01 02:04:35;;;;;;;5.80;3.60;;;12.00;93.10;;;;;;6242219;22;20522;-72
2023/05/01 02:07:03;;;;;;;6.32;3.55;;;12.10;93.20;;;;;;6241876;22;20004;-72
2023/05/01 02:09:29;;;;;;;4.55;3.35;;;12.10;93.20;;;;;;6241615;22;20504;-72
2023/05/01 02:11:56;;;;;;;7.00;3.38;;;12.10;93.00;;;;;;6242567;22;20072;-72
2023/05/01 02:14:25;;;;;;;9.18;3.80;;;12.10;93.00;;;;;;6243559;22;20441;-72
2023/05/01 02:16:51;;;;;;;7.57;3.65;;;12.10;93.00;;;;;;6242957;23;20083;-72
2023/05/01 02:19:18;;;;;;;7.82;3.50;;;12.10;92.90;;;;;;6242195;23;19996;-71
2023/05/01 02:21:44;;;;;;;6.95;3.17;;;12.20;92.80;;;;;;6243597;22;20004;-71
2023/05/01 02:24:11;;;;;;;7.13;3.65;;;12.20;92.80;;;;;;6243866;22;20004;-71
2023/05/01 02:26:42;;;;;;;5.47;3.40;;;12.20;92.90;;;;;;6244148;22;20007;-71
2023/05/01 02:29:09;;;;;;;5.70;3.45;;;12.20;92.80;;;;;;6243903;22;20003;-71
2023/05/01 02:31:34;;;;;;;8.35;4.25;;;12.20;92.70;;;;;;6243975;22;20504;-71
2023/05/01 02:34:00;;;;;;;5.85;3.67;;;12.20;92.80;;;;;;6243635;23;20012;-71
2023/05/01 02:36:26;;;;;;;6.38;3.33;;;12.30;92.80;;;;;;6242970;23;20023;-71
2023/05/01 02:38:53;;;;;;;7.00;4.88;;;12.30;92.80;;;;;;6244160;22;19996;-71
2023/05/01 02:41:21;;;;;;;7.70;3.55;;;12.30;92.80;;;;;;6241675;23;20334;-71
2023/05/01 02:43:53;;;;;;;7.30;3.13;;;12.30;92.80;;;;;;6244187;22;20004;-72
2023/05/01 02:46:20;;;;;;;7.82;3.17;;;12.20;92.70;;;;;;6243529;22;20423;-72
2023/05/01 02:48:46;;;;;;;5.75;3.22;;;12.30;92.70;;;;;;6244142;22;20307;-71
2023/05/01 02:51:12;;;;;;;7.18;3.30;;;12.20;92.60;;;;;;6242884;22;20014;-71
2023/05/01 02:53:39;;;;;;;4.65;3.25;;;12.20;92.70;;;;;;6243689;22;20107;-71
2023/05/01 02:56:06;;;;;;;7.10;4.05;;;12.30;92.70;;;;;;6243810;22;20075;-71
2023/05/01 02:58:33;;;;;;;7.10;3.40;;;12.30;92.70;;;;;;6243243;22;19996;-72
2023/05/01 03:00:59;;;;;;;5.70;4.18;;;12.30;92.70;;;;;;6243682;22;20027;-72
2023/05/01 03:03:25;;;;;;;7.00;3.47;;;12.30;92.60;;;;;;6243097;23;20414;-72
2023/05/01 03:05:51;;;;;;;5.90;3.70;;;12.20;92.60;;;;;;6243217;22;20007;-73
2023/05/01 03:08:16;;;;;;;7.15;4.18;;;12.20;92.60;;;;;;6242914;22;20000;-72
2023/05/01 03:10:42;;;;;;;8.52;3.67;;;12.20;92.60;;;;;;6243796;23;20000;-72
2023/05/01 03:13:09;;;;;;;4.82;3.13;;;12.20;92.60;;;;;;6243181;23;19996;-72
2023/05/01 03:15:35;;;;;;;9.70;4.15;;;12.20;92.60;;;;;;6243551;22;20453;-72
2023/05/01 03:18:01;;;;;;;7.85;4.50;;;12.20;92.60;;;;;;6244077;22;19996;-72
2023/05/01 03:20:26;;;;;;;8.80;3.25;;;12.20;92.60;;;;;;6242741;23;20126;-72
2023/05/01 03:22:52;;;;;;;6.97;3.70;;;12.20;92.60;;;;;;6243355;22;20000;-72
2023/05/01 03:25:18;;;;;;;5.68;3.63;;;12.20;92.70;;;;;;6242581;23;20444;-72
2023/05/01 03:27:43;;;;;;;6.95;3.30;;;12.20;92.70;;;;;;6243592;22;20000;-72
2023/05/01 03:30:09;;;;;;;7.68;4.43;;;12.20;92.80;;;;;;6241695;23;20486;-72
2023/05/01 03:32:35;;;;;;;5.30;3.35;;;12.20;92.80;;;;;;6243208;22;20031;-72
2023/05/01 03:35:01;;;;;;;9.65;3.92;;;12.20;92.70;;;;;;6243059;22;20464;-72
2023/05/01 03:37:27;;;;;;;5.03;3.63;;;12.20;92.70;;;;;;6239582;23;20004;-72
2023/05/01 03:39:53;;;;;;;5.38;3.30;;;12.20;92.70;;;;;;6240895;23;20414;-72
2023/05/01 03:42:18;;;;;;;6.30;3.70;;;12.10;92.70;;;;;;6240401;23;20000;-72
2023/05/01 03:44:44;;;;;;;6.13;3.28;;;12.10;92.70;;;;;;6241140;23;20004;-72
2023/05/01 03:47:10;;;;;;;4.70;3.03;;;12.10;92.70;;;;;;6240463;23;20019;-72
2023/05/01 03:49:35;;;;;;;5.82;3.80;;;12.10;92.80;;;;;;6240692;22;20332;-72
2023/05/01 03:52:01;;;;;;;9.13;3.85;;;12.10;92.80;;;;;;6240971;23;20004;-72
2023/05/01 03:54:26;;;;;;;6.03;3.65;;;12.10;92.70;;;;;;6241694;23;20011;-72
2023/05/01 03:56:52;;;;;;;10.20;4.57;;;12.10;92.70;;;;;;6243426;23;20054;-72
2023/05/01 03:59:18;;;;;;;11.20;5.05;;;12.10;92.80;;;;;;6242710;23;20015;-72
2023/05/01 04:01:43;;;;;;;4.63;3.40;;;12.10;92.90;;;;;;6242353;23;20013;-72
2023/05/01 04:04:09;;;;;;;10.77;3.38;;;12.10;92.80;;;;;;6242432;22;20004;-72
2023/05/01 04:06:35;;;;;;;6.97;3.78;;;12.10;92.90;;;;;;6241426;23;20015;-72
2023/05/01 04:09:01;;;;;;;8.60;4.57;;;12.10;92.90;;;;;;6243334;22;20000;-72
2023/05/01 04:11:27;;;;;;;5.78;3.60;;;12.10;92.90;;;;;;6242878;23;20331;-72
2023/05/01 04:13:52;;;;;;;8.32;4.25;;;12.10;92.80;;;;;;6243154;23;20000;-72
2023/05/01 04:16:18;;;;;;;9.70;3.95;;;12.00;92.80;;;;;;6241750;23;20082;-72
2023/05/01 04:18:44;;;;;;;6.90;3.65;;;12.10;92.80;;;;;;6243345;23;20011;-72
2023/05/01 04:21:09;;;;;;;6.88;4.10;;;12.10;92.80;;;;;;6242554;23;20011;-72
2023/05/01 04:23:35;;;;;;;6.45;3.72;;;12.00;92.70;;;;;;6242844;23;20004;-72
2023/05/01 04:26:00;;;;;;;7.05;3.85;;;12.10;92.80;;;;;;6242976;23;20000;-72
2023/05/01 04:28:29;;;;;;;10.27;4.45;;;12.10;92.80;;;;;;6242411;23;20028;-72
2023/05/01 04:30:55;;;;;;;5.57;3.70;;;12.10;92.80;;;;;;6242493;22;20023;-72
2023/05/01 04:33:21;;;;;;;9.18;4.07;;;12.10;92.80;;;;;;6242237;22;20430;-72
2023/05/01 04:35:47;;;;;;;7.00;3.38;;;12.10;92.80;;;;;;6242877;22;19996;-72
2023/05/01 04:38:13;;;;;;;8.48;4.82;;;12.10;92.90;;;;;;6242275;22;20028;-72
2023/05/01 04:40:38;;;;;;;7.53;3.83;;;12.20;92.90;;;;;;6242880;23;20003;-72
2023/05/01 04:43:04;;;;;;;6.43;3.65;;;12.20;92.90;;;;;;6241143;23;20000;-72
2023/05/01 04:45:29;;;;;;;6.82;3.22;;;12.10;92.80;;;;;;6241916;23;20019;-72
2023/05/01 04:47:55;;;;;;;7.53;3.92;;;12.10;92.80;;;;;;6242769;23;20023;-72
2023/05/01 04:50:20;;;;;;;5.63;4.00;;;12.20;92.90;;;;;;6242202;23;20024;-72
2023/05/01 04:52:46;;;;;;;8.75;4.22;;;12.10;92.90;;;;;;6241312;23;20004;-72
2023/05/01 04:55:11;;;;;;;8.45;4.45;;;12.10;92.90;;;;;;6242044;23;20008;-72
2023/05/01 04:57:37;;;;;;;7.82;4.22;;;12.10;92.90;;;;;;6242642;23;20327;-72
2023/05/01 05:00:04;;;;;;;6.35;3.80;;;12.10;92.90;;;;;;6241776;23;20358;-72
2023/05/01 05:02:29;;;;;;;9.63;4.00;;;12.20;93.00;;;;;;6241811;22;20003;-72
2023/05/01 05:04:55;;;;;;;7.72;4.97;;;12.20;93.00;;;;;;6241669;23;19996;-72
2023/05/01 05:07:21;;;;;;;8.73;4.40;;;12.20;93.00;;;;;;6239201;22;20004;-72
2023/05/01 05:09:47;;;;;;;7.28;3.83;;;12.20;93.00;;;;;;6242285;22;20016;-72
2023/05/01 05:12:13;;;;;;;7.95;4.63;;;12.20;93.00;;;;;;6241627;23;20005;-71
2023/05/01 05:14:40;;;;;;;5.53;4.03;;;12.20;93.00;;;;;;6240981;22;20483;-70
2023/05/01 05:17:05;;;;;;;11.90;4.88;;;12.20;92.90;;;;;;6241095;23;20437;-71
2023/05/01 05:19:31;;;;;;;7.75;4.53;;;12.30;93.00;;;;;;6242258;23;20004;-70
2023/05/01 05:21:56;;;;;;;7.55;4.97;;;12.30;92.90;;;;;;6242422;23;20000;-71
2023/05/01 05:24:22;;;;;;;11.60;4.68;;;12.30;92.90;;;;;;6241925;23;20116;-71
2023/05/01 05:26:48;;;;;;;7.15;5.25;;;12.30;93.00;;;;;;6242460;23;20004;-71
2023/05/01 05:29:14;;;;;;;6.70;4.63;;;12.30;93.00;;;;;;6241511;23;20000;-71
2023/05/01 05:31:39;;;;;;;9.20;5.38;;;12.30;92.90;;;;;;6242709;22;20008;-71
2023/05/01 05:34:05;;;;;;;10.15;4.38;;;12.30;92.90;;;;;;6242346;23;20020;-70
2023/05/01 05:36:31;;;;;;;8.13;4.63;;;12.40;92.90;;;;;;6242367;23;20071;-71
2023/05/01 05:38:57;;;;;;;6.65;5.30;;;12.50;92.90;;;;;;6242792;22;20004;-71
2023/05/01 05:41:23;;;;;;;10.82;5.25;;;12.50;92.80;;;;;;6241939;22;20080;-71
2023/05/01 05:43:48;;;;;;;7.25;4.72;;;12.50;92.80;;;;;;6242019;23;20027;-71
2023/05/01 05:46:14;;;;;;;10.75;4.82;;;12.60;92.70;;;;;;6241778;23;20008;-71
2023/05/01 05:48:40;;;;;;;8.27;4.50;;;12.60;92.70;;;;;;6244369;23;20066;-71
2023/05/01 05:51:05;;;;;;;7.07;4.57;;;12.70;92.80;;;;;;6244229;22;20000;-71
2023/05/01 05:53:31;;;;;;;8.15;5.50;;;12.60;92.70;;;;;;6243819;23;20070;-71
2023/05/01 05:55:57;;;;;;;8.77;4.80;;;12.70;92.70;;;;;;6244354;23;20083;-71
2023/05/01 05:58:23;;;;;;;7.50;4.90;;;12.70;92.70;;;;;;6243357;23;20004;-71
2023/05/01 06:00:50;;;;;;;9.13;5.15;;;12.70;92.60;;;;;;6242801;23;20334;-71
2023/05/01 06:03:16;;;;;;;7.40;5.03;;;12.70;92.60;;;;;;6243854;22;20369;-71
2023/05/01 06:05:42;;;;;;;9.18;4.65;;;12.70;92.60;;;;;;6244329;22;19996;-71
2023/05/01 06:08:11;;;;;;;8.18;4.55;;;12.70;92.60;;;;;;6243967;22;20000;-72
2023/05/01 06:10:38;;;;;;;7.15;5.20;;;12.70;92.70;;;;;;6244274;23;19996;-72
2023/05/01 06:13:07;;;;;;;6.03;4.97;;;12.80;92.60;;;;;;6243806;22;20061;-72
2023/05/01 06:15:33;;;;;;;8.43;5.18;;;12.80;92.60;;;;;;6243911;22;20425;-72
2023/05/01 06:17:59;;;;;;;9.38;5.22;;;12.80;92.60;;;;;;6244566;22;19997;-72
2023/05/01 06:20:25;;;;;;;11.75;5.75;;;12.80;92.60;;;;;;6243726;22;20008;-71
2023/05/01 06:22:50;;;;;;;12.80;6.10;;;12.80;92.60;;;;;;6244199;22;20046;-72
2023/05/01 06:25:16;;;;;;;7.90;5.57;;;12.80;92.60;;;;;;6243588;23;20059;-72
2023/05/01 06:27:42;;;;;;;9.57;5.82;;;12.80;92.60;;;;;;6243799;22;20012;-72
2023/05/01 06:30:08;;;;;;;9.05;5.72;;;12.80;92.60;;;;;;6244034;23;20000;-72
2023/05/01 06:32:34;;;;;;;10.60;5.18;;;12.90;92.60;;;;;;6241996;23;20004;-72
2023/05/01 06:34:59;;;;;;;8.20;5.30;;;12.80;92.50;;;;;;6244237;22;20031;-72
2023/05/01 06:37:25;;;;;;;8.52;6.07;;;12.90;92.50;;;;;;6243451;23;20079;-72
2023/05/01 06:39:51;;;;;;;14.85;6.40;;;13.00;92.50;;;;;;6243938;22;20000;-72
2023/05/01 06:42:16;;;;;;;7.53;5.65;;;13.00;92.60;;;;;;6242713;23;20004;-72
2023/05/01 06:44:42;;;;;;;8.10;5.88;;;13.00;92.50;;;;;;6244114;23;20004;-72
2023/05/01 06:47:08;;;;;;;7.88;5.68;;;13.10;92.60;;;;;;6243593;22;20004;-72
2023/05/01 06:49:34;;;;;;;12.07;6.03;;;13.10;92.50;;;;;;6243972;22;20525;-72
2023/05/01 06:52:00;;;;;;;11.02;5.45;;;13.20;92.40;;;;;;6242262;23;20033;-72
2023/05/01 06:54:25;;;;;;;13.68;7.45;;;13.20;92.30;;;;;;6241662;23;20062;-73
2023/05/01 06:56:52;;;;;;;9.13;5.80;;;13.20;92.30;;;;;;6243441;23;19996;-72
2023/05/01 06:59:17;;;;;;;8.32;5.45;;;13.30;92.40;;;;;;6242656;22;20111;-72
2023/05/01 07:01:43;;;;;;;8.10;5.53;;;13.40;92.40;;;;;;6241764;23;20023;-72
2023/05/01 07:04:09;;;;;;;11.20;6.35;;;13.40;92.30;;;;;;6243059;23;20008;-72
2023/05/01 07:06:35;;;;;;;10.48;5.78;;;13.40;92.20;;;;;;6243545;22;20004;-72
2023/05/01 07:09:00;;;;;;;11.98;6.22;;;13.50;92.30;;;;;;6242392;23;20030;-72
2023/05/01 07:11:26;;;;;;;12.65;6.20;;;13.50;92.40;;;;;;6242289;23;20015;-71
2023/05/01 07:13:53;;;;;;;11.75;6.78;;;13.60;92.30;;;;;;6239814;23;20436;-72
2023/05/01 07:16:19;;;;;;;10.93;5.90;;;13.70;92.30;;;;;;6242807;22;20027;-72
2023/05/01 07:18:45;;;;;;;8.35;6.18;;;13.70;92.20;;;;;;6243560;22;20015;-72
2023/05/01 07:21:10;;;;;;;7.88;5.22;;;13.80;92.10;;;;;;6242973;23;20004;-72
2023/05/01 07:23:37;;;;;;;9.35;6.68;;;13.90;92.20;;;;;;6243563;23;20010;-72
2023/05/01 07:26:02;;;;;;;8.57;6.22;;;14.00;92.20;;;;;;6242242;22;20028;-72
2023/05/01 07:28:28;;;;;;;14.25;6.88;;;14.00;92.10;;;;;;6243063;22;20008;-71
2023/05/01 07:30:54;;;;;;;9.48;5.90;;;14.10;92.00;;;;;;6242855;22;20008;-72
2023/05/01 07:33:19;;;;;;;8.48;5.50;;;14.20;91.90;;;;;;6242275;23;20016;-72
2023/05/01 07:35:45;;;;;;;9.15;6.50;;;14.40;91.90;;;;;;6240144;23;20004;-72
2023/05/01 07:38:12;;;;;;;7.63;5.70;;;14.50;91.70;;;;;;6241959;23;20000;-72
2023/05/01 07:40:37;;;;;;;11.23;6.97;;;14.50;91.40;;;;;;6176858;22;20107;-73
2023/05/01 07:43:03;;;;;;;9.40;5.43;;;14.60;91.40;;;;;;6206081;23;20429;-73
2023/05/01 07:45:29;;;;;;;8.65;6.35;;;14.70;91.40;;;;;;6211202;23;20333;-74
2023/05/01 07:47:55;;;;;;;11.45;6.00;;;14.80;91.30;;;;;;6184608;23;20001;-73
2023/05/01 07:50:22;;;;;;;6.68;5.82;;;15.00;91.40;;;;;;6210507;23;20001;-74
2023/05/01 07:52:47;;;;;;;10.60;6.47;;;15.10;91.20;;;;;;6211412;23;20076;-74
2023/05/01 07:55:13;;;;;;;11.85;6.78;;;15.20;91.00;;;;;;6208608;23;20084;-74
2023/05/01 07:57:39;;;;;;;10.52;5.95;;;15.30;90.90;;;;;;6211895;23;20056;-74
2023/05/01 08:00:05;;;;;;;11.15;6.47;;;15.40;90.80;;;;;;6211566;23;20011;-74
2023/05/01 08:02:31;;;;;;;9.70;6.65;;;15.60;90.80;;;;;;6211010;23;20306;-74
2023/05/01 08:04:56;;;;;;;8.85;6.47;;;15.60;90.70;;;;;;6183175;23;20008;-74
2023/05/01 08:07:22;;;;;;;10.05;6.85;;;15.60;90.60;;;;;;6210798;23;20024;-74
2023/05/01 08:09:47;;;;;;;7.93;6.47;;;15.80;90.70;;;;;;6210212;23;20019;-74
2023/05/01 08:12:13;;;;;;;9.73;6.50;;;15.80;90.40;;;;;;6184097;23;20008;-75
2023/05/01 08:14:38;;;;;;;10.00;6.25;;;15.90;90.20;;;;;;6183189;23;20028;-74
2023/05/01 08:17:04;;;;;;;10.88;6.85;;;15.90;90.10;;;;;;6209992;23;20001;-74
2023/05/01 08:19:30;;;;;;;7.95;6.25;;;15.90;89.90;;;;;;6210455;23;20379;-74
2023/05/01 08:21:56;;;;;;;9.32;6.40;;;15.80;89.70;;;;;;6211152;23;20024;-74
2023/05/01 08:24:21;;;;;;;11.75;6.40;;;15.90;89.90;;;;;;6209619;23;20008;-74
2023/05/01 08:26:47;;;;;;;9.35;6.35;;;15.90;90.00;;;;;;6209592;23;20055;-74
2023/05/01 08:29:13;;;;;;;10.77;6.35;;;16.00;90.00;;;;;;6210312;23;20042;-74
2023/05/01 08:31:39;;;;;;;9.45;6.57;;;16.10;90.00;;;;;;6210777;23;20008;-74
2023/05/01 08:34:05;;;;;;;7.55;6.68;;;16.20;89.90;;;;;;6211097;23;20032;-74
2023/05/01 08:36:31;;;;;;;9.85;6.35;;;16.30;89.40;;;;;;6212211;23;20369;-74
2023/05/01 08:38:57;;;;;;;11.85;6.43;;;16.40;89.30;;;;;;6211129;23;19997;-73
2023/05/01 08:41:22;;;;;;;7.70;6.20;;;16.50;89.40;;;;;;6211601;23;20020;-74
2023/05/01 08:43:48;;;;;;;7.22;6.15;;;16.50;88.90;;;;;;6210965;23;20080;-73
2023/05/01 08:46:27;;;;;;;7.22;6.05;;;16.70;88.70;;;;;;6209925;23;20001;-74
2023/05/01 08:48:59;;;;;;;7.00;6.18;;;16.80;89.00;;;;;;6208689;23;20080;-73
2023/05/01 08:51:25;;;;;;;7.90;6.50;;;16.90;88.70;;;;;;6210432;23;20001;-73
2023/05/01 08:53:52;;;;;;;8.43;6.50;;;17.00;88.50;;;;;;6211377;23;20000;-73
2023/05/01 08:56:20;;;;;;;9.38;7.80;;;17.10;88.50;;;;;;6210800;23;20004;-74
2023/05/01 08:58:48;;;;;;;7.93;6.38;;;17.20;88.20;;;;;;6210747;23;20421;-74
2023/05/01 09:01:14;;;;;;;8.82;6.55;;;17.30;87.90;;;;;;6209460;23;19997;-73
2023/05/01 09:03:43;;;;;;;13.27;7.32;;;17.40;87.40;;;;;;6210847;23;20008;-73
2023/05/01 09:06:10;;;;;;;9.82;6.70;;;17.60;87.10;;;;;;6210157;23;20083;-73
2023/05/01 09:08:36;;;;;;;10.55;6.95;;;17.60;86.70;;;;;;6209829;23;20000;-74
2023/05/01 09:11:02;;;;;;;9.65;6.43;;;17.70;86.80;;;;;;6182400;23;20012;-73
2023/05/01 09:13:29;;;;;;;6.97;6.05;;;17.80;86.20;;;;;;6210129;23;20008;-73
2023/05/01 09:15:54;;;;;;;8.30;6.00;;;17.80;85.80;;;;;;6184069;23;20084;-74
2023/05/01 09:18:20;;;;;;;8.95;5.45;;;17.90;85.50;;;;;;6210061;23;20032;-74
2023/05/01 09:20:46;;;;;;;7.03;5.57;;;18.00;85.40;;;;;;6208910;23;20035;-74
2023/05/01 09:23:12;;;;;;;7.13;5.70;;;18.10;85.00;;;;;;6208737;23;19997;-74
2023/05/01 09:25:38;;;;;;;6.53;5.45;;;18.10;84.50;;;;;;6182876;23;20012;-73
2023/05/01 09:28:05;;;;;;;7.80;5.95;;;18.20;83.70;;;;;;6210226;23;20386;-73
2023/05/01 09:30:36;;;;;;;8.90;5.78;;;18.30;82.50;;;;;;6209705;23;20000;-73
2023/05/01 09:33:12;;;;;;;5.88;5.30;;;18.30;81.80;;;;;;6209224;23;20466;-73
2023/05/01 09:35:55;;;;;;;6.88;5.43;;;18.40;82.20;;;;;;6210746;23;20015;-73
2023/05/01 09:38:25;;;;;;;9.05;4.90;;;18.70;82.00;;;;;;6209141;23;19997;-74
2023/05/01 09:40:53;;;;;;;6.15;4.78;;;18.80;81.90;;;;;;6210723;23;20457;-73
2023/05/01 09:43:29;;;;;;;8.07;5.20;;;19.00;81.70;;;;;;6181962;23;20017;-73
2023/05/01 09:46:04;;;;;;;5.38;4.30;;;19.30;80.90;;;;;;6184257;23;20505;-73
2023/05/01 09:48:30;;;;;;;7.40;4.63;;;19.60;80.70;;;;;;6209889;23;20331;-73
2023/05/01 09:50:55;;;;;;;6.13;4.50;;;19.80;80.30;;;;;;6210052;23;20042;-73
2023/05/01 09:53:37;;;;;;;8.93;5.47;;;20.00;79.70;;;;;;6208468;23;20001;-74
2023/05/01 09:56:03;;;;;;;4.43;3.70;;;20.20;77.90;;;;;;6210523;23;20055;-73
2023/05/01 09:58:29;;;;;;;6.53;4.30;;;20.30;77.70;;;;;;6210041;23;20247;-73
2023/05/01 10:00:54;;;;;;;8.07;4.47;;;20.30;77.30;;;;;;6210609;23;20394;-73
2023/05/01 10:03:20;;;;;;;7.53;4.93;;;20.40;76.90;;;;;;6210031;23;20643;-73
2023/05/01 10:05:46;;;;;;;7.07;4.55;;;20.50;75.40;;;;;;6208659;23;20013;-74
2023/05/01 10:08:13;;;;;;;5.88;3.85;;;20.50;75.30;;;;;;6208474;23;20293;-73
2023/05/01 10:10:40;;;;;;;8.65;4.43;;;20.60;76.00;;;;;;6210571;23;20015;-73
2023/05/01 10:13:16;;;;;;;6.18;4.05;;;20.70;75.40;;;;;;6210017;23;19997;-74
2023/05/01 10:15:45;;;;;;;5.15;4.00;;;20.80;75.10;;;;;;6208910;23;20318;-73
2023/05/01 10:18:12;;;;;;;4.65;3.45;;;20.90;74.70;;;;;;6210201;23;20004;-72
2023/05/01 10:20:38;;;;;;;4.55;3.00;;;20.90;72.70;;;;;;6209761;23;19992;-73
2023/05/01 10:23:04;;;;;;;5.70;3.20;;;20.90;72.30;;;;;;6210391;23;20001;-74
2023/05/01 10:25:30;;;;;;;5.43;2.85;;;20.90;72.40;;;;;;6208792;23;20150;-73
2023/05/01 10:27:57;;;;;;;4.38;3.20;;;21.00;72.40;;;;;;6181929;23;20402;-74
2023/05/01 10:30:25;;;;;;;5.28;3.10;;;21.10;72.40;;;;;;6209747;23;20001;-74
2023/05/01 10:32:51;;;;;;;5.53;3.15;;;21.20;71.50;;;;;;6210490;23;20028;-72
2023/05/01 10:35:28;;;;;;;3.13;2.40;;;21.30;71.20;;;;;;6183800;23;20119;-72
2023/05/01 10:38:01;;;;;;;4.00;2.45;;;21.50;70.80;;;;;;6210606;23;20020;-72
2023/05/01 10:40:42;;;;;;;6.57;2.95;;;21.60;70.80;;;;;;6211133;23;20004;-72
2023/05/01 10:43:27;;;;;;;3.38;2.42;;;21.60;70.80;;;;;;6184888;23;20007;-73
2023/05/01 10:45:54;;;;;;;5.47;2.88;;;21.70;70.90;;;;;;6185287;23;20001;-73
2023/05/01 10:48:38;;;;;;;4.45;2.92;;;21.60;70.70;;;;;;6209942;23;20008;-72
2023/05/01 10:51:11;;;;;;;;;;;21.60;69.60;;;;;;6212503;23;19997;-72
2023/05/01 10:53:37;;;;;;;4.72;2.83;;;21.40;70.00;;;;;;6210990;23;20317;-73
2023/05/01 10:56:04;;;;;;;4.13;3.40;;;21.40;71.00;;;;;;6211351;23;20106;-72
2023/05/01 10:58:36;;;;;;;5.63;3.40;;;21.20;71.90;;;;;;6210171;23;20363;-72
2023/05/01 11:01:30;;;;;;;5.85;3.08;;;21.20;72.20;;;;;;6210781;23;20350;-73
2023/05/01 11:04:02;;;;;;;4.72;3.67;;;21.20;70.90;;;;;;6210567;23;20005;-71
2023/05/01 11:06:28;;;;;;;5.38;3.75;;;21.10;71.70;;;;;;6211338;23;20408;-71
2023/05/01 11:08:54;;;;;;;6.70;3.97;;;21.20;72.80;;;;;;6185269;23;20009;-71
2023/05/01 11:11:20;;;;;;;6.55;4.60;;;21.20;72.80;;;;;;6209887;23;20009;-70
2023/05/01 11:14:01;;;;;;;5.47;4.10;;;21.20;72.70;;;;;;6211575;23;20319;-70
2023/05/01 11:16:39;;;;;;;8.90;6.20;;;21.20;73.80;;;;;;6210949;23;20011;-71
2023/05/01 11:19:10;;;;;;;6.07;5.45;;;21.20;74.20;;;;;;6210524;23;20075;-71
2023/05/01 11:21:39;;;;;;;7.38;5.60;;;21.20;74.60;;;;;;6210369;23;20004;-70
2023/05/01 11:24:08;;;;;;;9.38;5.55;;;21.20;74.10;;;;;;6211571;23;20028;-71
2023/05/01 11:26:41;;;;;;;8.40;5.60;;;21.30;74.40;;;;;;6184675;23;20441;-71
2023/05/01 11:29:09;;;;;;;13.27;5.85;;;21.40;73.80;;;;;;6184870;23;20290;-71
2023/05/01 11:31:35;;;;;;;5.22;4.40;;;21.40;73.80;;;;;;6208894;23;20092;-71
2023/05/01 11:34:02;;;;;;;10.43;6.55;;;21.70;73.80;;;;;;6209964;23;20012;-71
2023/05/01 11:36:30;;;;;;;8.40;5.80;;;21.70;72.40;;;;;;6210986;23;20126;-71
2023/05/01 11:39:00;;;;;;;6.25;5.57;;;21.80;72.30;;;;;;6211330;23;20084;-71
2023/05/01 11:41:26;;;;;;;7.70;4.97;;;22.00;71.10;;;;;;6210644;23;20020;-71
2023/05/01 11:43:57;;;;;;;7.80;5.13;;;22.00;71.30;;;;;;6210216;23;20079;-71
2023/05/01 11:46:27;;;;;;;7.03;4.97;;;22.10;71.00;;;;;;6183698;23;20008;-71
2023/05/01 11:48:57;;;;;;;5.50;4.20;;;22.20;71.40;;;;;;6183216;23;20337;-72
2023/05/01 11:51:24;;;;;;;5.28;4.32;;;22.40;70.80;;;;;;6184496;23;20411;-72
2023/05/01 11:54:03;;;;;;;7.88;5.00;;;22.50;70.50;;;;;;6211456;23;20084;-72
2023/05/01 11:56:29;;;;;;;7.38;5.18;;;22.60;70.60;;;;;;6213517;23;20001;-72
2023/05/01 11:58:57;;;;;;;6.13;4.95;;;22.70;70.00;;;;;;6185395;23;20009;-72
2023/05/01 12:01:37;;;;;;;4.85;4.40;;;22.70;70.20;;;;;;6210391;23;20005;-72
2023/05/01 12:04:04;;;;;;;7.53;4.18;;;22.90;69.30;;;;;;6183453;23;20008;-72
2023/05/01 12:06:39;;;;;;;5.00;3.90;;;23.00;68.90;;;;;;6184011;23;20032;-73
2023/05/01 12:09:06;;;;;;;7.35;2.85;;;22.90;66.90;;;;;;6186475;23;20100;-72
2023/05/01 12:11:32;;;;;;;4.40;2.13;;;22.80;66.10;;;;;;6212503;23;20050;-73
2023/05/01 12:13:57;;;;;;;3.65;1.98;;;22.70;65.50;;;;;;6185384;23;20013;-73
2023/05/01 12:16:24;;;;;;;4.53;3.08;;;22.70;64.30;;;;;;6182430;23;20008;-72
2023/05/01 12:18:49;;;;;;;7.10;2.85;;;22.60;63.60;;;;;;6211086;23;20270;-72
2023/05/01 12:21:19;;;;;;;4.72;2.17;;;22.60;64.40;;;;;;6210222;23;20025;-72
2023/05/01 12:23:45;;;;;;;6.10;2.70;;;22.60;62.60;;;;;;6210899;23;20004;-72
2023/05/01 12:26:23;;;;;;;4.20;1.92;;;22.40;62.30;;;;;;6209115;23;20009;-72
2023/05/01 12:29:02;;;;;;;2.88;1.80;;;22.40;62.40;;;;;;6211346;23;19993;-72
2023/05/01 12:31:29;;;;;;;2.72;1.40;;;22.40;62.00;;;;;;6210201;23;20334;-72
2023/05/01 12:33:58;;;;;;;3.47;1.67;;;22.40;61.80;;;;;;6184057;23;20008;-72
2023/05/01 12:36:27;;;;;;;5.40;1.95;;;22.30;61.30;;;;;;6183304;23;20004;-72
2023/05/01 12:38:58;;;;;;;2.70;1.50;;;22.20;60.70;;;;;;6209548;23;20457;-72
2023/05/01 12:41:41;;;;;;;4.53;2.17;;;22.10;60.90;;;;;;6209902;23;20008;-71
2023/05/01 12:44:24;;;;;;;4.18;1.70;;;22.00;60.80;;;;;;6210576;23;20488;-72
2023/05/01 12:46:54;;;;;;;4.05;1.58;;;21.90;60.80;;;;;;6210349;23;20042;-72
2023/05/01 12:49:20;;;;;;;6.40;2.05;;;21.80;60.40;;;;;;6206689;23;20001;-72